If you wish to contribute or participate in the discussions about articles you are invited to join SKYbrary as a registered user

 Actions

Iqaluit

From SKYbrary Wiki

CYFB
Airport
ICAO: CYFB
Summary
Name Iqaluit
Region North America
Territory Canada CA.gif
Location Iqaluit, Nunavut
Serving
Coordinates 63° 45' 15.54" N, 68° 33' 1.35" W
Runways
Designator Length Width Surface ROPS
17/35 2623 m8,605.643 ft
61 m200.131 ft
ASP yes/yes


METAR
Observation CYFB 241600Z 15005KT 30SM FEW060 SCT260 08/03 A2990 RMK SC1CI3 SLP130
Station Iqaluit, N. W. T.
Date/Time 24 August 2019 16:00:00
Wind direction 150°
Wind speed 05 kts
Lowest cloud amount few clouds
Temperature 8°C
Dew point 3°C
Humidity 70%
QNH hPa
Weather condition n/a

CFIT
Tag(s) Altimeter Temperature Error Correction
WX
Tag(s) Low Level Turbulence

Iqaluit Airport

ICAO: CYFB IATA: YFB

Description

Airport serving Iqaluit, Nunavut.

Climatology

Tundra climate (Köppen climate classification ET) - warmest month has an average temperature of 0 - 10 degrees C.

Maps

Terrain

Loading map...

Airport Layout

Loading map...


Accidents & Serious Incidents at or in vicinity of CYFB

None on SKYbrary